Time;durP1;ratioP1;P1;durP2;ratioP2;P2;SDS_P1;SDS_P2;PMS_P1;PMS_P2;Temp;Humidity;BMP_temperature;BMP_pressure;BME280_temperature;BME280_humidity;BME280_pressure;Samples;Min_cycle;Max_cycle;Signal;HPM_P1;HPM_P2
2022/05/07 00:00:06;;;;;;;0.70;0.70;;;23.10;36.40;;;24.31;32.48;102196.56;5053726;28;20202;-44
2022/05/07 00:02:34;;;;;;;0.80;0.80;;;23.10;36.50;;;24.30;32.55;102193.03;5053774;28;20198;-44
2022/05/07 00:05:02;;;;;;;0.90;0.90;;;23.10;36.50;;;24.30;32.00;102194.91;5049623;28;20202;-45
2022/05/07 00:07:29;;;;;;;0.80;0.80;;;23.10;36.50;;;24.30;32.36;102192.22;5033310;28;20205;-44
2022/05/07 00:09:57;;;;;;;0.53;0.53;;;23.10;36.50;;;24.30;32.16;102192.22;5033473;28;20525;-44
2022/05/07 00:12:25;;;;;;;0.80;0.80;;;23.10;36.50;;;24.30;32.51;102192.22;5034032;28;20659;-44
2022/05/07 00:14:52;;;;;;;0.90;0.90;;;23.10;36.50;;;24.29;32.14;102191.41;5046015;28;20198;-44
2022/05/07 00:20:09;;;;;;;0.80;0.80;;;23.10;36.60;;;24.29;32.49;102195.97;5052995;28;20186;-44
2022/05/07 00:22:36;;;;;;;0.80;0.80;;;23.10;36.60;;;24.28;32.62;102187.06;5043100;28;20190;-44
2022/05/07 00:25:05;;;;;;;0.80;0.80;;;23.10;36.60;;;24.28;32.43;102197.84;5042978;28;20206;-44
2022/05/07 00:27:33;;;;;;;0.80;0.80;;;23.10;36.60;;;24.29;32.69;102190.59;5051289;28;20601;-44
2022/05/07 00:30:00;;;;;;;0.80;0.80;;;23.10;36.60;;;24.29;32.70;102190.59;5039619;28;20240;-44
2022/05/07 00:32:28;;;;;;;0.90;0.90;;;23.10;36.60;;;24.29;32.69;102179.81;5032749;28;20190;-44
2022/05/07 00:34:55;;;;;;;0.70;0.70;;;23.10;36.60;;;24.29;32.53;102190.59;5032622;28;20190;-44
2022/05/07 00:37:23;;;;;;;0.80;0.80;;;23.10;36.60;;;24.30;32.19;102186.84;5036827;28;20202;-44
2022/05/07 00:39:51;;;;;;;0.90;0.90;;;23.10;36.60;;;24.29;32.59;102182.53;5054857;28;20668;-44
2022/05/07 00:42:20;;;;;;;0.80;0.80;;;23.10;36.60;;;24.29;32.43;102180.66;5054785;28;20194;-44
2022/05/07 00:44:47;;;;;;;0.70;0.70;;;23.10;36.60;;;24.29;32.40;102179.81;5056357;28;20202;-44
2022/05/07 00:47:23;;;;;;;0.97;0.97;;;23.10;36.60;;;24.27;32.78;102179.25;5054870;28;20220;-44
2022/05/07 00:51:33;;;;;;;0.80;0.80;;;23.10;36.70;;;24.28;32.64;102178.16;5057001;28;20646;-44
2022/05/07 00:52:42;;;;;;;0.90;0.90;;;23.10;36.60;;;24.28;32.74;102183.56;5056834;28;20662;-44
2022/05/07 00:55:12;;;;;;;0.67;0.67;;;23.10;36.70;;;24.28;32.53;102179.00;5054707;28;20201;-43
2022/05/07 00:57:41;;;;;;;0.67;0.67;;;23.10;36.70;;;24.28;32.92;102172.78;5056661;28;20193;-44
2022/05/07 01:00:10;;;;;;;0.80;0.80;;;23.10;36.80;;;24.27;32.75;102174.66;5047490;28;20186;-44
2022/05/07 01:02:38;;;;;;;0.80;0.80;;;23.10;36.70;;;24.29;32.62;102171.75;5054595;28;21003;-44
2022/05/07 01:05:07;;;;;;;0.80;0.80;;;23.10;36.70;;;24.28;32.88;102172.78;5050828;28;20522;-44
2022/05/07 01:07:34;;;;;;;0.80;0.80;;;23.10;36.70;;;24.27;32.81;102169.25;5038182;28;20208;-44
2022/05/07 01:10:04;;;;;;;0.90;0.90;;;23.10;36.80;;;24.28;32.46;102173.63;5035529;28;20268;-44
2022/05/07 01:12:31;;;;;;;0.90;0.90;;;23.10;36.70;;;24.28;32.74;102167.41;5037494;28;20512;-44
2022/05/07 01:15:01;;;;;;;0.80;0.80;;;23.10;36.70;;;24.29;32.54;102171.75;5035972;28;20209;-44
2022/05/07 01:17:32;;;;;;;0.80;0.80;;;23.10;36.80;;;24.27;32.94;102168.47;5045711;28;20236;-44
2022/05/07 01:20:00;;;;;;;0.80;0.80;;;23.10;36.80;;;24.28;32.86;102172.78;5046021;28;20194;-44
2022/05/07 01:22:32;;;;;;;0.80;0.80;;;23.10;36.80;;;24.27;32.60;102165.78;5036194;28;20722;-44
2022/05/07 01:25:02;;;;;;;0.80;0.80;;;23.10;36.80;;;24.26;32.35;102161.44;5036044;28;20198;-44
2022/05/07 01:27:29;;;;;;;0.70;0.70;;;23.10;36.80;;;24.28;32.65;102162.84;5036351;28;20191;-44
2022/05/07 01:29:56;;;;;;;0.63;0.63;;;23.10;36.90;;;24.28;32.63;102162.03;5037214;28;20662;-44
2022/05/07 01:32:24;;;;;;;0.70;0.70;;;23.10;36.90;;;24.28;32.87;102162.03;5037660;28;20203;-44
2022/05/07 01:34:53;;;;;;;0.83;0.83;;;23.10;36.90;;;24.26;32.43;102156.88;5042497;28;20206;-44
2022/05/07 01:37:20;;;;;;;0.87;0.87;;;23.10;36.90;;;24.27;33.02;102155.81;5055385;28;20205;-44
2022/05/07 01:39:49;;;;;;;1.03;1.00;;;23.10;36.90;;;24.27;32.90;102155.81;5055997;28;20209;-44
2022/05/07 01:42:16;;;;;;;0.80;0.80;;;23.10;36.90;;;24.27;32.58;102157.69;5055863;28;20194;-44
2022/05/07 01:44:44;;;;;;;0.60;0.60;;;23.10;36.90;;;24.27;32.48;102161.19;5053751;28;20197;-44
2022/05/07 01:49:56;;;;;;;0.90;0.90;;;23.10;36.90;;;24.27;32.53;102155.00;5036904;28;20674;-43
2022/05/07 01:52:24;;;;;;;0.80;0.80;;;23.10;36.90;;;24.27;32.96;102155.00;5047856;28;20289;-44
2022/05/07 01:54:53;;;;;;;0.77;0.77;;;23.10;36.90;;;24.27;32.52;102155.00;5055239;28;20265;-44
2022/05/07 01:57:20;;;;;;;1.00;1.00;;;23.10;36.90;;;24.28;33.10;102152.09;5055574;28;20216;-43
2022/05/07 01:59:47;;;;;;;0.90;0.90;;;23.10;36.90;;;24.27;32.55;102152.31;5055391;28;20186;-43
2022/05/07 02:02:15;;;;;;;0.77;0.77;;;23.10;37.00;;;24.25;32.86;102146.34;5053261;28;20739;-44
2022/05/07 02:04:42;;;;;;;0.70;0.70;;;23.10;37.00;;;24.27;32.75;102155.00;5049312;28;20252;-45
2022/05/07 02:07:09;;;;;;;0.80;0.80;;;23.10;36.90;;;24.27;32.91;102155.00;5035006;28;20210;-44
2022/05/07 02:09:37;;;;;;;0.83;0.83;;;23.10;37.00;;;24.26;32.61;102159.56;5035430;28;20256;-44
2022/05/07 02:12:07;;;;;;;0.90;0.90;;;23.10;37.00;;;24.27;32.71;102147.72;5035123;28;20195;-44
2022/05/07 02:14:35;;;;;;;0.63;0.63;;;23.10;37.00;;;24.26;32.94;102150.66;5035337;28;20182;-44
2022/05/07 02:17:02;;;;;;;0.70;0.70;;;23.10;37.00;;;24.26;32.81;102146.09;5042134;28;20220;-45
2022/05/07 02:19:30;;;;;;;0.80;0.80;;;23.10;37.00;;;24.26;33.12;102142.59;5053464;28;20194;-44
2022/05/07 02:21:57;;;;;;;0.70;0.70;;;23.10;37.00;;;24.29;32.59;102152.91;5044023;28;20590;-44
2022/05/07 02:24:25;;;;;;;0.80;0.80;;;23.10;37.10;;;24.27;32.97;102145.03;5033800;28;20234;-44
2022/05/07 02:26:52;;;;;;;0.80;0.80;;;23.10;37.10;;;24.27;32.96;102141.56;5035810;28;20217;-44
2022/05/07 02:29:21;;;;;;;0.70;0.70;;;23.10;37.10;;;24.26;32.89;102148.81;5034923;28;20271;-44
2022/05/07 02:32:03;;;;;;;0.80;0.80;;;23.10;37.20;;;24.27;33.20;102149.63;5047543;28;20206;-44
2022/05/07 02:34:31;;;;;;;0.70;0.70;;;23.10;37.20;;;24.25;32.80;102143.66;5053899;28;20229;-44
2022/05/07 02:36:58;;;;;;;0.77;0.77;;;23.10;37.20;;;24.26;33.11;102147.97;5036134;28;20601;-44
2022/05/07 02:39:26;;;;;;;0.90;0.90;;;23.10;37.20;;;24.26;33.11;102154.19;5053544;28;20566;-44
2022/05/07 02:44:41;;;;;;;0.87;0.87;;;23.10;37.20;;;24.26;32.87;102145.28;5053292;28;20689;-44
2022/05/07 02:47:08;;;;;;;0.90;0.90;;;23.10;37.10;;;24.25;32.90;102147.16;5054595;28;20213;-44
2022/05/07 02:49:36;;;;;;;0.80;0.80;;;23.10;37.20;;;24.26;33.10;102147.97;5054687;28;20214;-44
2022/05/07 02:52:04;;;;;;;0.80;0.80;;;23.10;37.20;;;24.25;32.91;102146.34;5053078;28;20200;-44
2022/05/07 02:54:31;;;;;;;0.80;0.80;;;23.10;37.30;;;24.26;33.06;102142.59;5052606;28;20194;-44
2022/05/07 02:56:59;;;;;;;0.67;0.67;;;23.10;37.20;;;24.26;33.06;102142.59;5054269;28;20224;-44
2022/05/07 02:59:26;;;;;;;0.90;0.90;;;23.10;37.20;;;24.27;33.21;102146.94;5053970;28;20189;-44
2022/05/07 03:01:54;;;;;;;0.80;0.80;;;23.10;37.20;;;24.26;32.70;102138.03;5045610;28;20650;-44
2022/05/07 03:04:22;;;;;;;0.90;0.90;;;23.10;37.30;;;24.27;33.29;102145.03;5054300;28;20190;-45
2022/05/07 03:06:49;;;;;;;0.80;0.80;;;23.10;37.30;;;24.26;32.73;102147.97;5053926;28;20221;-45
2022/05/07 03:09:16;;;;;;;1.00;1.00;;;23.10;37.30;;;24.27;33.01;102146.94;5038747;28;20206;-45
2022/05/07 03:11:44;;;;;;;0.53;0.53;;;23.10;37.30;;;24.26;33.02;102143.41;5035373;28;20209;-44
2022/05/07 03:14:12;;;;;;;0.70;0.70;;;23.10;37.30;;;24.26;33.21;102138.03;5047724;28;20204;-44
2022/05/07 03:16:39;;;;;;;0.80;0.80;;;23.10;37.30;;;24.25;33.27;102140.97;5053700;28;20292;-44
2022/05/07 03:19:08;;;;;;;0.80;0.80;;;23.10;37.30;;;24.27;32.99;102144.25;5039941;28;20561;-44
2022/05/07 03:21:36;;;;;;;0.90;0.90;;;23.10;37.40;;;24.26;32.83;102147.97;5047697;28;20520;-44
2022/05/07 03:24:04;;;;;;;0.63;0.63;;;23.10;37.40;;;24.26;33.09;102147.97;5051769;28;20201;-44
2022/05/07 03:26:31;;;;;;;0.90;0.90;;;23.10;38.00;;;24.25;33.03;102146.34;5033601;28;20221;-44
2022/05/07 03:28:59;;;;;;;0.80;0.80;;;23.10;37.40;;;24.23;33.22;102143.88;5053053;28;20193;-44
2022/05/07 03:31:27;;;;;;;0.70;0.70;;;23.10;37.40;;;24.26;33.11;102150.66;5054078;28;20197;-44
2022/05/07 03:33:54;;;;;;;0.90;0.90;;;23.10;37.50;;;24.26;33.09;102154.19;5053921;28;20255;-44
2022/05/07 03:36:23;;;;;;;0.87;0.87;;;23.10;37.50;;;24.25;33.18;102147.16;5051672;28;20233;-44
2022/05/07 03:38:50;;;;;;;0.70;0.70;;;23.10;38.20;;;24.26;33.12;102147.97;5053865;28;20196;-44
2022/05/07 03:41:20;;;;;;;0.80;0.80;;;23.10;37.50;;;24.27;33.46;102141.56;5052047;28;20197;-44
2022/05/07 03:43:47;;;;;;;0.80;0.80;;;23.10;37.50;;;24.25;33.12;102147.16;5051675;28;20197;-44
2022/05/07 03:46:14;;;;;;;0.80;0.80;;;23.10;37.50;;;24.26;32.83;102150.66;5053249;28;20217;-44
2022/05/07 03:48:42;;;;;;;0.80;0.80;;;23.10;37.60;;;24.26;33.31;102148.81;5053579;28;20264;-45
2022/05/07 03:51:09;;;;;;;0.80;0.80;;;23.10;37.60;;;24.27;33.62;102149.63;5052802;28;20713;-44
2022/05/07 03:53:38;;;;;;;0.80;0.80;;;23.10;37.60;;;24.25;33.34;102147.16;5052879;28;20198;-44
2022/05/07 03:56:07;;;;;;;0.80;0.80;;;23.10;37.70;;;24.23;33.45;102143.88;5053209;28;20209;-44
2022/05/07 03:58:35;;;;;;;0.80;0.80;;;23.00;37.60;;;24.25;33.53;102147.16;5041952;28;20212;-44
2022/05/07 04:01:09;;;;;;;0.83;0.83;;;23.10;37.70;;;24.24;33.08;102142.84;5038855;28;20550;-44
2022/05/07 04:03:37;;;;;;;0.90;0.90;;;23.10;37.80;;;24.26;33.46;102137.22;5054106;28;20197;-44
2022/05/07 04:06:04;;;;;;;0.90;0.90;;;23.10;37.80;;;24.25;33.52;102141.75;5052725;28;20213;-44
2022/05/07 04:08:32;;;;;;;0.70;0.70;;;23.10;37.80;;;24.26;33.52;102143.41;5050642;28;22386;-44
2022/05/07 04:11:01;;;;;;;0.87;0.87;;;23.10;37.80;;;24.25;33.39;102151.72;5052225;28;20581;-44
2022/05/07 04:13:29;;;;;;;0.80;0.80;;;23.10;37.80;;;24.25;33.31;102151.72;5053273;28;20190;-45
2022/05/07 04:15:56;;;;;;;0.80;0.80;;;23.10;37.90;;;24.26;33.44;102147.97;5051253;28;20214;-45
2022/05/07 04:18:23;;;;;;;0.80;0.80;;;23.10;38.20;;;24.25;33.46;102146.34;5037156;28;20260;-45
2022/05/07 04:20:50;;;;;;;0.70;0.70;;;23.10;37.90;;;24.26;33.37;102151.50;5040587;28;20264;-45
2022/05/07 04:23:18;;;;;;;0.70;0.70;;;23.10;37.90;;;24.26;33.61;102154.19;5053126;28;20190;-44
2022/05/07 04:25:48;;;;;;;0.73;0.73;;;23.10;37.90;;;24.25;33.62;102154.44;5046930;28;20233;-45
2022/05/07 04:28:16;;;;;;;0.80;0.80;;;23.10;37.90;;;24.26;33.58;102161.44;5043685;28;20264;-44
2022/05/07 04:30:44;;;;;;;0.80;0.80;;;23.10;37.90;;;24.26;33.37;102153.34;5051424;28;20697;-45
2022/05/07 04:33:11;;;;;;;0.70;0.70;;;23.10;38.00;;;24.26;33.46;102153.34;5051346;28;20193;-44
2022/05/07 04:35:38;;;;;;;0.77;0.77;;;23.10;38.00;;;24.25;33.35;102157.91;5052552;28;20224;-44
2022/05/07 04:38:05;;;;;;;0.77;0.77;;;23.10;38.00;;;24.25;33.44;102163.28;5053198;28;20198;-44
2022/05/07 04:40:33;;;;;;;1.00;1.00;;;23.10;38.10;;;24.26;33.75;102164.13;5053099;28;20193;-44
2022/05/07 04:43:00;;;;;;;0.90;0.90;;;23.10;38.10;;;24.28;33.69;102159.31;5051539;28;20190;-45
2022/05/07 04:45:29;;;;;;;0.90;0.90;;;23.10;38.30;;;24.26;33.73;102162.25;5052680;28;20217;-44
2022/05/07 04:47:56;;;;;;;0.80;0.80;;;23.10;38.30;;;24.27;33.57;102168.47;5051249;28;20189;-45
2022/05/07 04:50:23;;;;;;;0.90;0.90;;;23.10;38.30;;;24.27;33.82;102168.47;5050771;28;20206;-45
2022/05/07 04:52:51;;;;;;;0.90;0.90;;;23.10;38.30;;;24.28;33.56;102170.09;5052951;28;20194;-44
2022/05/07 04:55:18;;;;;;;0.80;0.80;;;23.10;38.30;;;24.26;33.70;102164.94;5052535;28;20674;-44
2022/05/07 04:57:45;;;;;;;0.80;0.80;;;23.10;38.30;;;24.27;34.15;102169.25;5053233;28;20194;-44
2022/05/07 05:00:15;;;;;;;1.00;1.00;;;23.10;38.40;;;24.26;33.42;102170.34;5047464;28;20201;-44
2022/05/07 05:02:44;;;;;;;0.93;0.93;;;23.10;38.50;;;24.26;34.24;102173.03;5052886;28;20226;-43
2022/05/07 05:05:11;;;;;;;0.73;0.73;;;23.10;38.50;;;24.28;33.64;102167.41;5047722;28;20268;-44
2022/05/07 05:07:39;;;;;;;1.00;1.00;;;23.10;38.50;;;24.27;33.48;102166.56;5046337;28;20197;-44
2022/05/07 05:10:08;;;;;;;0.80;0.80;;;23.10;38.50;;;24.29;34.24;102174.44;5052082;28;20682;-44
2022/05/07 05:12:35;;;;;;;1.03;1.03;;;23.10;38.60;;;24.28;33.99;102175.47;5052592;28;20193;-44
2022/05/07 05:15:06;;;;;;;0.87;0.87;;;23.10;38.60;;;24.29;33.78;102179.81;5052526;28;20662;-45
2022/05/07 05:17:34;;;;;;;1.00;1.00;;;23.10;38.60;;;24.28;33.99;102173.63;5050754;28;20248;-44
2022/05/07 05:20:06;;;;;;;1.17;1.17;;;23.10;38.70;;;24.26;33.96;102180.28;5046804;28;20273;-44
2022/05/07 05:22:33;;;;;;;0.87;0.87;;;23.10;38.70;;;24.27;34.16;102185.41;5042706;28;20565;-43
2022/05/07 05:25:04;;;;;;;1.20;1.20;;;23.10;38.70;;;24.28;34.10;102180.88;5037303;28;20190;-45
2022/05/07 05:27:31;;;;;;;0.80;0.80;;;23.10;38.70;;;24.27;34.17;102187.31;5036375;28;20187;-45
2022/05/07 05:29:59;;;;;;;0.93;0.93;;;23.10;38.70;;;24.27;34.08;102185.41;5036183;28;20709;-45
2022/05/07 05:32:27;;;;;;;1.13;1.10;;;23.10;38.70;;;24.27;33.83;102190.81;5035952;28;20659;-44
2022/05/07 05:34:54;;;;;;;1.10;1.10;;;23.10;38.70;;;24.28;33.84;102184.38;5036940;28;20198;-45
2022/05/07 05:37:22;;;;;;;1.10;1.10;;;23.10;38.70;;;24.30;34.06;102189.53;5037141;28;20201;-45
2022/05/07 05:39:50;;;;;;;1.17;1.17;;;23.10;38.80;;;24.29;34.15;102190.59;5037199;28;20655;-44
2022/05/07 05:42:17;;;;;;;0.70;0.70;;;23.10;38.80;;;24.29;33.92;102201.38;5036009;28;20217;-46
2022/05/07 05:44:44;;;;;;;0.80;0.80;;;23.10;38.80;;;24.29;34.07;102198.66;5035703;28;20194;-45
2022/05/07 05:47:12;;;;;;;1.00;1.00;;;23.10;38.80;;;24.30;33.86;102203.81;5035786;28;20222;-44
2022/05/07 05:49:39;;;;;;;1.03;1.03;;;23.10;38.80;;;24.29;34.32;102204.06;5036974;28;20678;-45
2022/05/07 05:52:08;;;;;;;1.37;1.37;;;23.10;38.80;;;24.29;33.89;102206.75;5035537;28;20218;-44
2022/05/07 05:54:36;;;;;;;1.33;1.30;;;23.10;38.90;;;24.28;34.00;102205.09;5036821;28;20194;-44
2022/05/07 05:57:05;;;;;;;1.10;1.10;;;23.10;38.90;;;24.29;33.97;102209.44;5046553;28;20228;-45
2022/05/07 05:59:32;;;;;;;1.00;1.00;;;23.10;38.90;;;24.28;34.24;102211.31;5055514;28;20186;-45
2022/05/07 06:01:59;;;;;;;1.20;1.20;;;23.10;38.90;;;24.29;34.41;102212.13;5055380;28;20193;-44
2022/05/07 06:04:27;;;;;;;0.90;0.90;;;23.10;38.90;;;24.29;34.41;102218.34;5055500;28;20516;-46
2022/05/07 06:06:54;;;;;;;0.80;0.80;;;23.10;38.90;;;24.28;34.07;102215.84;5051016;28;20255;-45
2022/05/07 06:09:23;;;;;;;1.03;1.03;;;23.10;39.00;;;24.30;33.92;102214.56;5035935;28;20197;-45
2022/05/07 06:11:51;;;;;;;1.20;1.20;;;23.10;39.00;;;24.29;34.31;102206.75;5035181;28;20222;-46
2022/05/07 06:14:19;;;;;;;0.90;0.90;;;23.10;39.10;;;24.30;34.24;102213.75;5036537;28;20206;-45
2022/05/07 06:16:46;;;;;;;1.20;1.20;;;23.10;39.10;;;24.31;34.51;102223.47;5052055;28;20300;-45
2022/05/07 06:19:13;;;;;;;1.10;1.10;;;23.10;39.10;;;24.30;34.34;102224.53;5075246;28;20213;-45
2022/05/07 06:21:40;;;;;;;1.10;1.10;;;23.10;39.10;;;24.30;34.59;102221.81;5060882;28;20186;-45
2022/05/07 06:29:41;;;;;;;1.20;1.20;;;23.10;39.20;;;24.27;34.38;102235.75;5036063;28;20194;-45
2022/05/07 06:32:08;;;;;;;1.23;1.20;;;23.10;39.20;;;24.27;34.17;102233.06;5035206;28;20226;-43
2022/05/07 06:34:35;;;;;;;1.10;1.10;;;23.10;39.20;;;24.29;34.43;102241.75;5034038;28;20198;-45
2022/05/07 06:37:03;;;;;;;1.10;1.10;;;23.10;39.20;;;24.29;34.41;102245.25;5034421;28;20587;-45
2022/05/07 06:39:31;;;;;;;0.90;0.90;;;23.10;39.30;;;24.29;34.41;102244.44;5034923;28;20227;-45
2022/05/07 06:42:00;;;;;;;1.20;1.20;;;23.10;39.30;;;24.29;34.05;102249.81;5036089;28;20195;-45
2022/05/07 06:44:27;;;;;;;1.33;1.27;;;23.10;39.30;;;24.28;34.65;102243.59;5036012;28;20202;-45
2022/05/07 06:46:56;;;;;;;1.00;1.00;;;23.10;39.30;;;24.29;34.64;102239.03;5035275;28;20214;-44
2022/05/07 06:49:24;;;;;;;0.97;0.97;;;23.10;39.30;;;24.29;34.50;102250.63;5034721;28;20202;-44
2022/05/07 06:51:51;;;;;;;1.10;1.10;;;23.10;39.30;;;24.30;34.59;102246.06;5034531;28;20221;-45
2022/05/07 06:54:18;;;;;;;1.10;1.10;;;23.10;39.30;;;24.30;34.29;102240.66;5034706;28;20195;-44
2022/05/07 06:56:47;;;;;;;1.10;1.10;;;23.10;39.30;;;24.31;34.49;102242.31;5042900;28;20220;-44
2022/05/07 06:59:15;;;;;;;1.10;1.10;;;23.10;39.40;;;24.31;34.91;102237.78;5051437;28;20206;-44
2022/05/07 07:01:43;;;;;;;1.03;1.03;;;23.10;39.40;;;24.31;34.62;102236.94;5041356;28;20186;-43
2022/05/07 07:04:10;;;;;;;1.37;1.27;;;23.10;39.40;;;24.30;34.31;102232.59;5041468;28;20194;-44
2022/05/07 07:06:37;;;;;;;1.13;1.13;;;23.10;39.40;;;24.31;34.39;102232.38;5054101;28;20210;-44
2022/05/07 07:09:05;;;;;;;1.30;1.20;;;23.10;39.50;;;24.30;34.33;102230.72;5053697;28;20642;-44
2022/05/07 07:11:32;;;;;;;1.23;1.20;;;23.10;39.50;;;24.30;34.81;102230.72;5054059;28;20293;-44
2022/05/07 07:14:02;;;;;;;1.27;1.17;;;23.10;39.50;;;24.33;34.44;102229.44;5054095;28;20197;-45
2022/05/07 07:16:31;;;;;;;1.07;1.07;;;23.10;39.60;;;24.33;34.54;102224.06;5039571;28;20232;-45
2022/05/07 07:18:58;;;;;;;1.23;1.23;;;23.10;39.70;;;24.35;34.59;102224.66;5052202;28;20189;-44
2022/05/07 07:21:26;;;;;;;1.10;1.10;;;23.10;39.60;;;24.35;34.85;102232.72;5054119;28;20194;-44
2022/05/07 07:23:53;;;;;;;1.10;1.10;;;23.10;39.70;;;24.34;34.83;102231.94;5054264;28;20197;-44
2022/05/07 07:26:20;;;;;;;1.00;1.00;;;23.10;39.70;;;24.35;34.91;102238.13;5053600;28;20210;-44
2022/05/07 07:28:48;;;;;;;1.17;1.17;;;23.10;39.70;;;24.35;34.87;102240.81;5054087;28;20194;-45
2022/05/07 07:31:16;;;;;;;1.13;1.03;;;23.10;39.70;;;24.36;34.74;102240.59;5053771;28;20224;-44
2022/05/07 07:33:45;;;;;;;1.20;1.10;;;23.10;39.70;;;24.36;34.47;102247.84;5036284;28;20199;-45
2022/05/07 07:36:12;;;;;;;1.30;1.20;;;23.10;39.80;;;24.36;34.93;102242.47;5034231;28;20223;-44
2022/05/07 07:38:40;;;;;;;1.13;1.13;;;23.20;39.90;;;24.37;35.08;102241.41;5033832;28;20555;-45
2022/05/07 07:41:07;;;;;;;1.20;1.20;;;23.20;39.90;;;24.37;34.92;102244.09;5033660;28;20200;-44
2022/05/07 07:43:37;;;;;;;0.90;0.90;;;23.20;39.90;;;24.37;34.57;102242.22;5033376;28;20218;-44
2022/05/07 07:48:52;;;;;;;1.07;1.07;;;23.20;39.90;;;24.35;34.60;102243.50;5034744;28;20187;-45
2022/05/07 07:51:20;;;;;;;1.10;1.10;;;23.20;39.90;;;24.38;34.49;102243.06;5034486;28;20209;-44
2022/05/07 07:53:47;;;;;;;0.97;0.97;;;23.20;39.90;;;24.37;34.83;102244.91;5034085;28;20209;-44
2022/05/07 07:56:15;;;;;;;0.83;0.83;;;23.20;39.90;;;24.38;34.73;102243.06;5037444;28;20214;-44
2022/05/07 07:58:43;;;;;;;1.00;1.00;;;23.20;39.90;;;24.38;34.83;102240.38;5053430;28;20644;-44
2022/05/07 08:01:10;;;;;;;1.00;1.00;;;23.20;39.90;;;24.39;34.77;102242.03;5053163;28;20190;-44
2022/05/07 08:03:37;;;;;;;0.87;0.87;;;23.20;39.90;;;24.39;34.87;102244.72;5053115;28;20186;-44
2022/05/07 08:06:06;;;;;;;0.90;0.90;;;23.20;39.90;;;24.39;34.75;102242.03;5050942;28;20220;-44
2022/05/07 08:14:06;;;;;;;1.07;1.00;;;23.20;39.90;;;24.38;34.82;102243.06;5033353;28;20523;-44
2022/05/07 08:16:35;;;;;;;0.83;0.83;;;23.20;39.90;;;24.38;34.90;102241.19;5038148;28;20227;-44
2022/05/07 08:19:03;;;;;;;0.83;0.83;;;23.20;39.90;;;24.39;35.16;102250.09;5052558;28;20190;-44
2022/05/07 08:21:32;;;;;;;0.67;0.67;;;23.20;39.90;;;24.39;34.58;102250.09;5052445;28;20280;-44
2022/05/07 08:24:00;;;;;;;0.83;0.83;;;23.20;39.90;;;24.40;35.09;102249.03;5048494;28;20194;-45
2022/05/07 08:26:27;;;;;;;0.97;0.97;;;23.20;39.90;;;24.40;34.49;102254.41;5043422;28;20218;-44
2022/05/07 08:28:54;;;;;;;0.80;0.80;;;23.20;39.90;;;24.40;34.72;102246.34;5052854;28;20204;-44
2022/05/07 08:31:22;;;;;;;0.90;0.90;;;23.20;39.90;;;24.40;34.74;102246.34;5042780;28;20214;-44
2022/05/07 08:33:51;;;;;;;0.60;0.60;;;23.20;39.90;;;24.40;35.10;102251.72;5033086;28;20187;-44
2022/05/07 08:36:18;;;;;;;1.00;1.00;;;23.20;39.80;;;24.39;34.39;102245.50;5032107;28;20214;-43
2022/05/07 08:38:47;;;;;;;0.80;0.80;;;23.20;39.80;;;24.41;34.43;102250.69;5032804;28;20568;-43
2022/05/07 08:41:15;;;;;;;0.60;0.60;;;23.20;39.80;;;24.41;35.00;102253.38;5034122;28;20651;-44
2022/05/07 08:43:43;;;;;;;0.60;0.60;;;23.20;39.80;;;24.39;34.88;102250.88;5033869;28;20187;-44
2022/05/07 08:46:14;;;;;;;0.70;0.70;;;23.20;39.80;;;24.41;34.83;102253.38;5032473;28;20218;-44
2022/05/07 08:48:43;;;;;;;0.73;0.73;;;23.20;39.70;;;24.42;34.39;102257.69;5042332;28;20190;-45
2022/05/07 08:51:14;;;;;;;0.80;0.80;;;23.20;39.70;;;24.42;34.34;102263.06;5043442;28;20301;-44
2022/05/07 08:53:43;;;;;;;0.80;0.80;;;23.20;39.70;;;24.41;35.04;102264.16;5052844;28;20680;-44
2022/05/07 08:56:13;;;;;;;0.80;0.80;;;23.20;39.70;;;24.41;35.01;102264.97;5052594;28;20574;-45
2022/05/07 08:58:47;;;;;;;0.87;0.87;;;23.20;39.70;;;24.41;34.58;102264.16;5041880;28;20691;-44
2022/05/07 09:01:14;;;;;;;1.20;0.80;;;23.20;39.90;;;24.44;34.98;102269.09;5050400;28;20212;-44
2022/05/07 09:03:44;;;;;;;0.63;0.63;;;23.20;39.80;;;24.43;34.90;102267.44;5049913;28;20206;-44
2022/05/07 09:06:20;;;;;;;0.97;0.70;;;23.20;39.70;;;24.44;34.65;102269.09;5030726;28;20772;-44
2022/05/07 09:08:50;;;;;;;0.80;0.80;;;23.20;39.70;;;24.45;34.77;102266.16;5047884;28;20229;-44
2022/05/07 09:11:20;;;;;;;0.80;0.80;;;23.20;39.80;;;24.45;35.05;102265.31;5047036;28;20234;-44
2022/05/07 09:13:59;;;;;;;0.90;0.90;;;23.20;39.80;;;24.44;34.62;102269.09;5048326;28;20252;-44
2022/05/07 09:16:37;;;;;;;0.90;0.90;;;23.20;39.80;;;24.44;34.81;102263.69;5035955;28;20210;-44
2022/05/07 09:19:06;;;;;;;0.70;0.70;;;23.20;39.80;;;24.48;34.81;102262.19;5037154;28;20284;-44
2022/05/07 09:21:34;;;;;;;0.70;0.70;;;23.20;39.70;;;24.47;34.67;102263.22;5051089;28;20197;-44
2022/05/07 09:24:05;;;;;;;278.60;196.77;;;23.20;39.70;;;24.47;34.79;102260.53;5048633;28;20213;-45
2022/05/07 09:26:37;;;;;;;39.27;21.63;;;23.20;39.70;;;24.49;34.35;102261.09;5052567;28;20582;-45
2022/05/07 09:29:08;;;;;;;6.23;3.40;;;23.30;39.80;;;24.49;34.79;102269.19;5056486;28;20243;-44
2022/05/07 09:31:41;;;;;;;3.10;2.17;;;23.30;39.80;;;24.49;34.31;102266.50;5058517;28;20213;-44
2022/05/07 09:37:14;;;;;;;1.87;1.00;;;23.30;39.80;;;24.48;34.94;102267.56;5026878;28;20233;-44
2022/05/07 09:39:47;;;;;;;1.13;0.90;;;23.30;39.80;;;24.49;34.79;102266.50;5055938;28;20217;-44
2022/05/07 09:42:18;;;;;;;4.27;0.77;;;23.30;39.80;;;24.52;34.69;102266.88;5059121;28;20300;-44
2022/05/07 09:44:46;;;;;;;0.97;0.97;;;23.30;39.70;;;24.53;34.73;102262.31;5056275;28;20201;-44
2022/05/07 09:47:15;;;;;;;0.70;0.70;;;23.30;39.70;;;24.55;34.36;102265.59;5056602;28;20222;-44
2022/05/07 09:52:32;;;;;;;0.80;0.80;;;23.30;39.80;;;24.56;34.91;102262.66;5060438;28;20233;-44
2022/05/07 09:57:49;;;;;;;1.90;0.80;;;23.30;39.80;;;24.58;34.29;102259.75;5055865;28;20207;-44
2022/05/07 10:00:20;;;;;;;1.70;0.80;;;23.40;39.80;;;24.59;34.38;102261.38;5054977;28;20376;-44
2022/05/07 10:03:09;;;;;;;1.13;0.70;;;23.40;39.80;;;24.56;34.43;102259.13;5058151;28;20285;-44
2022/05/07 10:05:54;;;;;;;2.73;0.97;;;23.40;39.90;;;24.57;34.98;102263.50;5050463;28;20226;-44
2022/05/07 10:08:48;;;;;;;0.83;0.70;;;23.40;40.50;;;24.57;34.53;102260.78;5047213;28;20213;-44
2022/05/07 10:11:18;;;;;;;2.13;0.87;;;23.40;39.90;;;24.60;34.45;102263.03;5054288;28;20208;-44
2022/05/07 10:13:58;;;;;;;2.03;0.90;;;23.40;39.80;;;24.60;34.44;102265.72;5055366;28;20204;-45
2022/05/07 10:16:30;;;;;;;1.70;0.90;;;23.40;39.90;;;24.63;34.89;102257.16;5058829;28;20323;-44
2022/05/07 10:19:10;;;;;;;1.10;1.00;;;23.40;39.90;;;24.60;34.63;102265.72;5055711;28;20202;-45
2022/05/07 10:21:37;;;;;;;1.00;0.70;;;23.40;39.90;;;24.63;34.53;102263.38;5055182;28;20868;-42
2022/05/07 10:24:05;;;;;;;2.23;0.93;;;23.40;39.90;;;24.66;34.50;102256.72;5054176;28;20210;-45
2022/05/07 10:26:41;;;;;;;0.70;0.70;;;23.40;39.90;;;24.67;34.47;102258.38;5059050;28;20215;-44
2022/05/07 10:29:21;;;;;;;0.90;0.90;;;23.40;40.00;;;24.65;34.66;102260.47;5055942;28;20201;-45
2022/05/07 10:31:48;;;;;;;1.43;0.87;;;23.50;40.00;;;24.69;34.45;102258.97;5056369;28;20310;-44
2022/05/07 10:34:24;;;;;;;1.20;0.80;;;23.50;39.90;;;24.68;34.88;102257.31;5055120;28;20201;-44
2022/05/07 10:37:01;;;;;;;1.80;0.70;;;23.50;40.00;;;24.69;34.73;102253.56;5056989;28;20235;-45
2022/05/07 10:39:29;;;;;;;1.40;0.80;;;23.50;40.00;;;24.72;34.66;102250.44;5055447;28;20221;-45
2022/05/07 10:41:57;;;;;;;1.80;0.80;;;23.50;40.00;;;24.72;35.04;102250.44;5055923;28;20709;-44
2022/05/07 10:44:34;;;;;;;5.00;1.00;;;23.50;40.60;;;24.73;35.02;102252.06;5058503;28;20229;-43
2022/05/07 10:47:13;;;;;;;2.03;0.93;;;23.50;40.10;;;24.73;34.42;102252.88;5054192;28;20247;-43
2022/05/07 10:49:55;;;;;;;0.90;0.90;;;23.50;40.10;;;24.73;35.05;102252.06;5054200;28;20200;-44